sensor_id;sensor_type;location;lat;lon;timestamp;pressure;altitude;pressure_sealevel;temperature;humidity
39141;BME280;24875;48.436;10.298;2022-07-11T00:01:53;96917.22;;;12.73;84.09
39141;BME280;24875;48.436;10.298;2022-07-11T00:04:22;96912.53;;;12.83;84.43
39141;BME280;24875;48.436;10.298;2022-07-11T00:06:49;96910.41;;;12.78;84.52
39141;BME280;24875;48.436;10.298;2022-07-11T00:09:15;96909.09;;;12.75;84.44
39141;BME280;24875;48.436;10.298;2022-07-11T00:11:42;96908.16;;;12.98;83.35
39141;BME280;24875;48.436;10.298;2022-07-11T00:14:09;96901.66;;;12.78;82.15
39141;BME280;24875;48.436;10.298;2022-07-11T00:16:35;96907.25;;;12.53;83.36
39141;BME280;24875;48.436;10.298;2022-07-11T00:19:01;96903.09;;;12.88;84.01
39141;BME280;24875;48.436;10.298;2022-07-11T00:21:31;96905.88;;;12.95;83.38
39141;BME280;24875;48.436;10.298;2022-07-11T00:23:59;96905.22;;;12.63;83.25
39141;BME280;24875;48.436;10.298;2022-07-11T00:26:25;96901.72;;;12.62;84.79
39141;BME280;24875;48.436;10.298;2022-07-11T00:28:52;96912.28;;;12.32;83.83
39141;BME280;24875;48.436;10.298;2022-07-11T00:31:19;96910.44;;;12.40;85.12
39141;BME280;24875;48.436;10.298;2022-07-11T00:33:45;96905.41;;;12.53;85.50
39141;BME280;24875;48.436;10.298;2022-07-11T00:36:12;96904.72;;;12.59;84.63
39141;BME280;24875;48.436;10.298;2022-07-11T00:38:40;96899.69;;;12.42;83.86
39141;BME280;24875;48.436;10.298;2022-07-11T00:41:06;96906.38;;;12.60;84.12
39141;BME280;24875;48.436;10.298;2022-07-11T00:43:35;96913.91;;;12.71;84.09
39141;BME280;24875;48.436;10.298;2022-07-11T00:46:02;96901.34;;;12.73;84.69
39141;BME280;24875;48.436;10.298;2022-07-11T00:48:29;96900.13;;;12.53;84.68
39141;BME280;24875;48.436;10.298;2022-07-11T00:50:56;96894.22;;;12.74;84.95
39141;BME280;24875;48.436;10.298;2022-07-11T00:53:24;96891.56;;;12.51;84.37
39141;BME280;24875;48.436;10.298;2022-07-11T00:55:52;96890.69;;;12.28;84.69
39141;BME280;24875;48.436;10.298;2022-07-11T00:58:19;96885.91;;;12.54;85.57
39141;BME280;24875;48.436;10.298;2022-07-11T01:00:46;96886.84;;;12.61;85.02
39141;BME280;24875;48.436;10.298;2022-07-11T01:03:12;96889.09;;;12.42;84.52
39141;BME280;24875;48.436;10.298;2022-07-11T01:05:39;96889.41;;;12.47;84.11
39141;BME280;24875;48.436;10.298;2022-07-11T01:08:05;96885.25;;;12.52;83.00
39141;BME280;24875;48.436;10.298;2022-07-11T01:10:32;96888.94;;;12.43;83.74
39141;BME280;24875;48.436;10.298;2022-07-11T01:13:00;96871.13;;;12.68;84.25
39141;BME280;24875;48.436;10.298;2022-07-11T01:15:27;96882.69;;;12.36;85.05
39141;BME280;24875;48.436;10.298;2022-07-11T01:17:54;96879.72;;;12.39;84.45
39141;BME280;24875;48.436;10.298;2022-07-11T01:20:21;96879.34;;;12.50;84.61
39141;BME280;24875;48.436;10.298;2022-07-11T01:22:51;96879.94;;;12.60;84.04
39141;BME280;24875;48.436;10.298;2022-07-11T01:25:19;96872.00;;;12.60;84.79
39141;BME280;24875;48.436;10.298;2022-07-11T01:27:56;96872.25;;;12.05;85.22
39141;BME280;24875;48.436;10.298;2022-07-11T01:30:23;96877.81;;;12.17;85.78
39141;BME280;24875;48.436;10.298;2022-07-11T01:32:50;96871.78;;;12.39;85.79
39141;BME280;24875;48.436;10.298;2022-07-11T01:35:17;96877.91;;;12.40;85.36
39141;BME280;24875;48.436;10.298;2022-07-11T01:37:43;96873.16;;;12.27;86.28
39141;BME280;24875;48.436;10.298;2022-07-11T01:40:10;96871.69;;;12.25;86.01
39141;BME280;24875;48.436;10.298;2022-07-11T01:42:39;96868.28;;;12.47;85.52
39141;BME280;24875;48.436;10.298;2022-07-11T01:45:06;96871.47;;;12.34;86.70
39141;BME280;24875;48.436;10.298;2022-07-11T01:47:33;96872.19;;;12.28;87.97
39141;BME280;24875;48.436;10.298;2022-07-11T01:49:59;96876.06;;;12.40;87.64
39141;BME280;24875;48.436;10.298;2022-07-11T01:52:26;96866.41;;;12.55;87.70
39141;BME280;24875;48.436;10.298;2022-07-11T01:54:53;96867.63;;;12.45;88.10
39141;BME280;24875;48.436;10.298;2022-07-11T01:57:20;96869.63;;;12.43;87.60
39141;BME280;24875;48.436;10.298;2022-07-11T01:59:48;96869.44;;;12.44;85.83
39141;BME280;24875;48.436;10.298;2022-07-11T02:02:15;96870.47;;;12.35;87.44
39141;BME280;24875;48.436;10.298;2022-07-11T02:04:42;96874.72;;;12.44;87.93
39141;BME280;24875;48.436;10.298;2022-07-11T02:07:09;96868.47;;;12.68;88.14
39141;BME280;24875;48.436;10.298;2022-07-11T02:09:36;96862.06;;;12.62;87.81
39141;BME280;24875;48.436;10.298;2022-07-11T02:12:03;96861.59;;;12.59;86.91
39141;BME280;24875;48.436;10.298;2022-07-11T02:14:30;96867.00;;;12.65;86.55
39141;BME280;24875;48.436;10.298;2022-07-11T02:16:58;96862.91;;;12.85;86.62
39141;BME280;24875;48.436;10.298;2022-07-11T02:19:24;96865.81;;;12.76;86.72
39141;BME280;24875;48.436;10.298;2022-07-11T02:21:51;96860.34;;;12.77;86.83
39141;BME280;24875;48.436;10.298;2022-07-11T02:24:17;96860.88;;;12.42;87.96
39141;BME280;24875;48.436;10.298;2022-07-11T02:26:44;96864.09;;;12.52;87.36
39141;BME280;24875;48.436;10.298;2022-07-11T02:29:11;96860.03;;;12.72;87.90
39141;BME280;24875;48.436;10.298;2022-07-11T02:31:37;96856.16;;;12.52;87.66
39141;BME280;24875;48.436;10.298;2022-07-11T02:34:05;96855.88;;;12.47;87.67
39141;BME280;24875;48.436;10.298;2022-07-11T02:36:32;96852.16;;;12.64;88.07
39141;BME280;24875;48.436;10.298;2022-07-11T02:38:58;96853.84;;;12.57;88.04
39141;BME280;24875;48.436;10.298;2022-07-11T02:41:25;96852.19;;;12.56;88.01
39141;BME280;24875;48.436;10.298;2022-07-11T02:43:51;96852.16;;;12.64;87.72
39141;BME280;24875;48.436;10.298;2022-07-11T02:46:18;96850.38;;;12.79;88.15
39141;BME280;24875;48.436;10.298;2022-07-11T02:48:44;96852.09;;;12.72;87.17
39141;BME280;24875;48.436;10.298;2022-07-11T02:51:12;96858.81;;;12.52;87.37
39141;BME280;24875;48.436;10.298;2022-07-11T02:53:38;96851.28;;;12.72;87.80
39141;BME280;24875;48.436;10.298;2022-07-11T02:56:05;96855.09;;;12.39;88.23
39141;BME280;24875;48.436;10.298;2022-07-11T02:58:32;96856.16;;;12.60;88.82
39141;BME280;24875;48.436;10.298;2022-07-11T03:00:58;96849.50;;;12.64;89.23
39141;BME280;24875;48.436;10.298;2022-07-11T03:03:25;96850.56;;;12.55;88.97
39141;BME280;24875;48.436;10.298;2022-07-11T03:05:51;96853.03;;;12.57;89.71
39141;BME280;24875;48.436;10.298;2022-07-11T03:08:19;96848.47;;;12.73;88.65
39141;BME280;24875;48.436;10.298;2022-07-11T03:10:46;96846.75;;;12.50;87.23
39141;BME280;24875;48.436;10.298;2022-07-11T03:13:13;96854.97;;;12.32;88.43
39141;BME280;24875;48.436;10.298;2022-07-11T03:15:40;96856.53;;;12.49;89.32
39141;BME280;24875;48.436;10.298;2022-07-11T03:18:07;96852.09;;;12.72;89.09
39141;BME280;24875;48.436;10.298;2022-07-11T03:20:33;96850.88;;;12.60;89.67
39141;BME280;24875;48.436;10.298;2022-07-11T03:23:00;96853.44;;;12.68;90.63
39141;BME280;24875;48.436;10.298;2022-07-11T03:25:28;96855.03;;;12.77;90.62
39141;BME280;24875;48.436;10.298;2022-07-11T03:27:54;96852.03;;;12.80;90.06
39141;BME280;24875;48.436;10.298;2022-07-11T03:30:21;96853.38;;;12.76;90.65
39141;BME280;24875;48.436;10.298;2022-07-11T03:32:48;96847.28;;;12.76;90.53
39141;BME280;24875;48.436;10.298;2022-07-11T03:35:14;96847.59;;;12.80;91.08
39141;BME280;24875;48.436;10.298;2022-07-11T03:37:59;96854.50;;;12.81;89.85
39141;BME280;24875;48.436;10.298;2022-07-11T03:40:25;96856.59;;;12.94;89.98
39141;BME280;24875;48.436;10.298;2022-07-11T03:42:53;96842.25;;;13.11;90.31
39141;BME280;24875;48.436;10.298;2022-07-11T03:45:19;96855.31;;;12.90;91.33
39141;BME280;24875;48.436;10.298;2022-07-11T03:47:46;96846.03;;;12.94;90.69
39141;BME280;24875;48.436;10.298;2022-07-11T03:50:13;96852.31;;;12.93;91.05
39141;BME280;24875;48.436;10.298;2022-07-11T03:52:40;96861.66;;;13.03;89.90
39141;BME280;24875;48.436;10.298;2022-07-11T03:55:07;96851.44;;;13.00;90.58
39141;BME280;24875;48.436;10.298;2022-07-11T03:57:34;96850.84;;;13.13;92.65
39141;BME280;24875;48.436;10.298;2022-07-11T04:00:04;96850.13;;;13.19;92.95
39141;BME280;24875;48.436;10.298;2022-07-11T04:02:31;96845.28;;;13.22;92.98
39141;BME280;24875;48.436;10.298;2022-07-11T04:04:57;96843.78;;;13.28;91.98
39141;BME280;24875;48.436;10.298;2022-07-11T04:07:24;96845.88;;;13.32;91.94
39141;BME280;24875;48.436;10.298;2022-07-11T04:09:50;96849.72;;;13.44;91.01
39141;BME280;24875;48.436;10.298;2022-07-11T04:12:17;96840.53;;;13.54;90.94
39141;BME280;24875;48.436;10.298;2022-07-11T04:14:44;96838.63;;;13.63;91.95
39141;BME280;24875;48.436;10.298;2022-07-11T04:17:11;96848.88;;;13.80;91.53
39141;BME280;24875;48.436;10.298;2022-07-11T04:19:38;96840.19;;;13.72;91.25
39141;BME280;24875;48.436;10.298;2022-07-11T04:22:04;96847.41;;;13.63;90.41
39141;BME280;24875;48.436;10.298;2022-07-11T04:24:31;96858.09;;;13.84;90.86
39141;BME280;24875;48.436;10.298;2022-07-11T04:26:58;96853.91;;;14.04;89.86
39141;BME280;24875;48.436;10.298;2022-07-11T04:29:24;96859.66;;;14.07;88.80
39141;BME280;24875;48.436;10.298;2022-07-11T04:31:51;96859.66;;;14.07;86.27
39141;BME280;24875;48.436;10.298;2022-07-11T04:34:19;96853.34;;;14.23;89.45
39141;BME280;24875;48.436;10.298;2022-07-11T04:36:46;96853.28;;;14.31;88.36
39141;BME280;24875;48.436;10.298;2022-07-11T04:39:12;96858.84;;;14.36;89.07
39141;BME280;24875;48.436;10.298;2022-07-11T04:41:39;96853.00;;;14.26;86.93
39141;BME280;24875;48.436;10.298;2022-07-11T04:44:05;96858.84;;;14.36;82.86
39141;BME280;24875;48.436;10.298;2022-07-11T04:46:32;96861.00;;;14.47;83.57
39141;BME280;24875;48.436;10.298;2022-07-11T04:48:59;96858.69;;;14.58;84.35
39141;BME280;24875;48.436;10.298;2022-07-11T04:51:27;96856.00;;;14.72;82.40
39141;BME280;24875;48.436;10.298;2022-07-11T04:53:53;96853.53;;;14.71;83.11
39141;BME280;24875;48.436;10.298;2022-07-11T04:56:20;96852.22;;;14.61;82.36
39141;BME280;24875;48.436;10.298;2022-07-11T04:58:46;96859.34;;;14.60;81.50
39141;BME280;24875;48.436;10.298;2022-07-11T05:01:13;96856.00;;;14.72;79.27
39141;BME280;24875;48.436;10.298;2022-07-11T05:03:40;96855.91;;;14.80;80.60
39141;BME280;24875;48.436;10.298;2022-07-11T05:06:06;96854.19;;;14.94;82.29
39141;BME280;24875;48.436;10.298;2022-07-11T05:08:34;96850.28;;;15.11;79.47
39141;BME280;24875;48.436;10.298;2022-07-11T05:11:02;96856.28;;;15.19;78.76
39141;BME280;24875;48.436;10.298;2022-07-11T05:13:28;96852.94;;;15.11;80.42
39141;BME280;24875;48.436;10.298;2022-07-11T05:15:55;96855.84;;;15.30;81.33
39141;BME280;24875;48.436;10.298;2022-07-11T05:18:21;96854.13;;;15.23;78.03
39141;BME280;24875;48.436;10.298;2022-07-11T05:20:48;96851.13;;;15.32;78.90
39141;BME280;24875;48.436;10.298;2022-07-11T05:23:15;96850.56;;;15.36;78.29
39141;BME280;24875;48.436;10.298;2022-07-11T05:25:43;96855.19;;;15.28;76.39
39141;BME280;24875;48.436;10.298;2022-07-11T05:28:09;96855.66;;;15.17;76.97
39141;BME280;24875;48.436;10.298;2022-07-11T05:30:36;96856.88;;;15.35;77.36
39141;BME280;24875;48.436;10.298;2022-07-11T05:33:02;96859.69;;;15.27;77.50
39141;BME280;24875;48.436;10.298;2022-07-11T05:35:29;96855.16;;;15.49;77.28
39141;BME280;24875;48.436;10.298;2022-07-11T05:37:55;96858.19;;;15.46;79.58
39141;BME280;24875;48.436;10.298;2022-07-11T05:40:22;96856.66;;;15.58;77.89
39141;BME280;24875;48.436;10.298;2022-07-11T05:42:50;96859.03;;;15.74;75.72
39141;BME280;24875;48.436;10.298;2022-07-11T05:45:16;96866.53;;;15.64;76.46
39141;BME280;24875;48.436;10.298;2022-07-11T05:47:43;96869.56;;;15.61;77.95
39141;BME280;24875;48.436;10.298;2022-07-11T05:50:09;96867.31;;;15.64;77.14
39141;BME280;24875;48.436;10.298;2022-07-11T05:52:36;96860.75;;;15.81;75.29
39141;BME280;24875;48.436;10.298;2022-07-11T05:55:03;96862.78;;;15.85;77.76
39141;BME280;24875;48.436;10.298;2022-07-11T05:57:29;96873.72;;;15.70;74.90
39141;BME280;24875;48.436;10.298;2022-07-11T05:59:57;96874.63;;;15.56;77.41
39141;BME280;24875;48.436;10.298;2022-07-11T06:02:24;96871.59;;;15.59;76.65
39141;BME280;24875;48.436;10.298;2022-07-11T06:04:51;96873.44;;;15.37;76.92
39141;BME280;24875;48.436;10.298;2022-07-11T06:07:17;96870.06;;;15.71;78.19
39141;BME280;24875;48.436;10.298;2022-07-11T06:09:57;96877.63;;;15.74;77.96
39141;BME280;24875;48.436;10.298;2022-07-11T06:12:24;96878.50;;;15.53;78.18
39141;BME280;24875;48.436;10.298;2022-07-11T06:14:50;96877.00;;;15.72;76.95
39141;BME280;24875;48.436;10.298;2022-07-11T06:17:18;96874.97;;;15.74;77.88
39141;BME280;24875;48.436;10.298;2022-07-11T06:19:45;96873.97;;;15.75;77.69
39141;BME280;24875;48.436;10.298;2022-07-11T06:22:11;96872.31;;;16.01;78.77
39141;BME280;24875;48.436;10.298;2022-07-11T06:24:39;96879.34;;;16.15;77.36
39141;BME280;24875;48.436;10.298;2022-07-11T06:27:06;96874.69;;;16.23;77.18
39141;BME280;24875;48.436;10.298;2022-07-11T06:29:32;96871.97;;;16.44;78.17
39141;BME280;24875;48.436;10.298;2022-07-11T06:31:58;96878.16;;;16.51;79.06
39141;BME280;24875;48.436;10.298;2022-07-11T06:34:26;96878.28;;;16.43;76.22
39141;BME280;24875;48.436;10.298;2022-07-11T06:36:53;96883.34;;;16.32;77.08
39141;BME280;24875;48.436;10.298;2022-07-11T06:39:19;96887.03;;;16.71;75.08
39141;BME280;24875;48.436;10.298;2022-07-11T06:41:46;96879.97;;;16.97;74.53
39141;BME280;24875;48.436;10.298;2022-07-11T06:44:13;96887.31;;;16.95;75.97
39141;BME280;24875;48.436;10.298;2022-07-11T06:46:39;96876.34;;;17.24;74.96
39141;BME280;24875;48.436;10.298;2022-07-11T06:49:06;96876.16;;;17.25;72.95
39141;BME280;24875;48.436;10.298;2022-07-11T06:51:35;96877.81;;;17.52;71.77
39141;BME280;24875;48.436;10.298;2022-07-11T06:54:01;96881.50;;;17.51;73.44
39141;BME280;24875;48.436;10.298;2022-07-11T06:56:28;96870.25;;;17.62;71.49
39141;BME280;24875;48.436;10.298;2022-07-11T06:58:57;96872.72;;;17.57;70.79
39141;BME280;24875;48.436;10.298;2022-07-11T07:01:24;96880.91;;;17.36;72.28
39141;BME280;24875;48.436;10.298;2022-07-11T07:03:50;96879.63;;;17.26;71.69
39141;BME280;24875;48.436;10.298;2022-07-11T07:06:17;96877.63;;;17.47;70.90
39141;BME280;24875;48.436;10.298;2022-07-11T07:08:45;96875.78;;;17.86;69.52
39141;BME280;24875;48.436;10.298;2022-07-11T07:11:12;96879.06;;;17.56;70.48
39141;BME280;24875;48.436;10.298;2022-07-11T07:13:38;96874.53;;;17.95;71.07
39141;BME280;24875;48.436;10.298;2022-07-11T07:16:05;96875.97;;;18.04;70.60
39141;BME280;24875;48.436;10.298;2022-07-11T07:18:32;96880.28;;;18.25;72.06
39141;BME280;24875;48.436;10.298;2022-07-11T07:20:59;96876.31;;;18.40;69.15
39141;BME280;24875;48.436;10.298;2022-07-11T07:23:25;96878.63;;;18.24;68.74
39141;BME280;24875;48.436;10.298;2022-07-11T07:25:53;96872.97;;;18.64;69.38
39141;BME280;24875;48.436;10.298;2022-07-11T07:28:19;96874.94;;;18.88;67.94
39141;BME280;24875;48.436;10.298;2022-07-11T07:30:46;96872.63;;;18.91;65.33
39141;BME280;24875;48.436;10.298;2022-07-11T07:33:12;96866.44;;;18.97;64.89
39141;BME280;24875;48.436;10.298;2022-07-11T07:35:39;96872.78;;;19.09;66.17
39141;BME280;24875;48.436;10.298;2022-07-11T07:38:05;96862.63;;;19.24;65.68
39141;BME280;24875;48.436;10.298;2022-07-11T07:40:32;96862.22;;;19.20;64.71
39141;BME280;24875;48.436;10.298;2022-07-11T07:43:00;96861.63;;;19.49;64.67
39141;BME280;24875;48.436;10.298;2022-07-11T07:45:27;96865.03;;;19.32;65.17
39141;BME280;24875;48.436;10.298;2022-07-11T07:47:53;96865.91;;;19.57;63.19
39141;BME280;24875;48.436;10.298;2022-07-11T07:50:20;96859.72;;;19.80;62.92
39141;BME280;24875;48.436;10.298;2022-07-11T07:52:47;96865.50;;;19.77;64.62
39141;BME280;24875;48.436;10.298;2022-07-11T07:55:14;96870.00;;;19.59;64.49
39141;BME280;24875;48.436;10.298;2022-07-11T07:57:40;96877.66;;;19.49;64.16
39141;BME280;24875;48.436;10.298;2022-07-11T08:00:09;96866.66;;;19.63;66.66
39141;BME280;24875;48.436;10.298;2022-07-11T08:02:53;96869.94;;;19.65;64.92
39141;BME280;24875;48.436;10.298;2022-07-11T08:05:20;96869.13;;;19.34;66.31
39141;BME280;24875;48.436;10.298;2022-07-11T08:07:47;96873.06;;;19.32;64.95
39141;BME280;24875;48.436;10.298;2022-07-11T08:10:13;96870.81;;;19.59;65.53
39141;BME280;24875;48.436;10.298;2022-07-11T08:12:40;96866.06;;;19.86;68.39
39141;BME280;24875;48.436;10.298;2022-07-11T08:15:09;96866.97;;;20.22;67.88
39141;BME280;24875;48.436;10.298;2022-07-11T08:17:36;96865.34;;;20.39;63.63
39141;BME280;24875;48.436;10.298;2022-07-11T08:20:03;96865.69;;;20.07;64.52
39141;BME280;24875;48.436;10.298;2022-07-11T08:22:30;96856.41;;;20.09;63.13
39141;BME280;24875;48.436;10.298;2022-07-11T08:24:56;96860.44;;;20.36;61.76
39141;BME280;24875;48.436;10.298;2022-07-11T08:27:23;96859.50;;;20.48;63.67
39141;BME280;24875;48.436;10.298;2022-07-11T08:29:49;96854.88;;;20.55;62.92
39141;BME280;24875;48.436;10.298;2022-07-11T08:32:17;96866.34;;;20.44;59.65
39141;BME280;24875;48.436;10.298;2022-07-11T08:34:44;96861.56;;;20.46;60.78
39141;BME280;24875;48.436;10.298;2022-07-11T08:37:11;96857.34;;;20.75;63.15
39141;BME280;24875;48.436;10.298;2022-07-11T08:39:37;96860.00;;;20.75;62.04
39141;BME280;24875;48.436;10.298;2022-07-11T08:42:04;96855.31;;;20.70;60.42
39141;BME280;24875;48.436;10.298;2022-07-11T08:44:30;96852.56;;;20.59;59.81
39141;BME280;24875;48.436;10.298;2022-07-11T08:46:58;96844.91;;;20.44;60.21
39141;BME280;24875;48.436;10.298;2022-07-11T08:49:27;96857.47;;;20.44;60.27
39141;BME280;24875;48.436;10.298;2022-07-11T08:51:54;96853.44;;;20.35;60.93
39141;BME280;24875;48.436;10.298;2022-07-11T08:54:21;96846.06;;;20.73;60.33
39141;BME280;24875;48.436;10.298;2022-07-11T08:56:47;96845.31;;;20.95;62.36
39141;BME280;24875;48.436;10.298;2022-07-11T08:59:16;96837.28;;;20.95;60.07
39141;BME280;24875;48.436;10.298;2022-07-11T09:01:45;96827.88;;;21.04;59.23
39141;BME280;24875;48.436;10.298;2022-07-11T09:04:12;96835.25;;;20.79;58.12
39141;BME280;24875;48.436;10.298;2022-07-11T09:06:40;96831.53;;;21.09;59.00
39141;BME280;24875;48.436;10.298;2022-07-11T09:09:06;96826.22;;;21.21;58.86
39141;BME280;24875;48.436;10.298;2022-07-11T09:11:48;96824.47;;;21.55;55.47
39141;BME280;24875;48.436;10.298;2022-07-11T09:14:20;96821.41;;;21.52;59.96
39141;BME280;24875;48.436;10.298;2022-07-11T09:16:51;96825.41;;;21.61;60.14
39141;BME280;24875;48.436;10.298;2022-07-11T09:19:22;96827.88;;;21.74;56.58
39141;BME280;24875;48.436;10.298;2022-07-11T09:22:01;96835.50;;;21.47;56.81
39141;BME280;24875;48.436;10.298;2022-07-11T09:24:55;96836.84;;;21.56;56.73
39141;BME280;24875;48.436;10.298;2022-07-11T09:27:41;96837.22;;;21.94;57.56
39141;BME280;24875;48.436;10.298;2022-07-11T09:30:23;96834.91;;;22.09;55.04
39141;BME280;24875;48.436;10.298;2022-07-11T09:32:58;96830.69;;;22.13;53.99
39141;BME280;24875;48.436;10.298;2022-07-11T09:35:27;96833.84;;;21.76;59.40
39141;BME280;24875;48.436;10.298;2022-07-11T09:37:55;96837.81;;;21.85;54.91
39141;BME280;24875;48.436;10.298;2022-07-11T09:40:22;96836.88;;;21.91;56.20
39141;BME280;24875;48.436;10.298;2022-07-11T09:42:53;96842.72;;;21.99;57.40
39141;BME280;24875;48.436;10.298;2022-07-11T09:45:21;96839.22;;;21.99;58.14
39141;BME280;24875;48.436;10.298;2022-07-11T09:47:49;96833.84;;;21.76;62.08
39141;BME280;24875;48.436;10.298;2022-07-11T09:50:19;96826.25;;;22.30;57.03
39141;BME280;24875;48.436;10.298;2022-07-11T09:53:02;96835.28;;;22.35;57.01
39141;BME280;24875;48.436;10.298;2022-07-11T09:55:29;96826.72;;;22.38;55.04
39141;BME280;24875;48.436;10.298;2022-07-11T09:57:56;96831.63;;;22.18;52.69
39141;BME280;24875;48.436;10.298;2022-07-11T10:00:23;96832.06;;;22.61;53.59
39141;BME280;24875;48.436;10.298;2022-07-11T10:02:51;96839.22;;;22.44;54.31
39141;BME280;24875;48.436;10.298;2022-07-11T10:05:18;96840.13;;;22.61;53.43
39141;BME280;24875;48.436;10.298;2022-07-11T10:07:44;96835.50;;;22.22;50.42
39141;BME280;24875;48.436;10.298;2022-07-11T10:10:12;96839.22;;;21.99;53.66
39141;BME280;24875;48.436;10.298;2022-07-11T10:12:39;96836.63;;;21.81;53.56
39141;BME280;24875;48.436;10.298;2022-07-11T10:15:08;96835.94;;;21.97;53.59
39141;BME280;24875;48.436;10.298;2022-07-11T10:17:42;96835.38;;;22.40;55.35
39141;BME280;24875;48.436;10.298;2022-07-11T10:20:13;96840.13;;;22.61;55.49
39141;BME280;24875;48.436;10.298;2022-07-11T10:22:45;96843.69;;;22.78;52.92
39141;BME280;24875;48.436;10.298;2022-07-11T10:25:19;96843.47;;;23.19;53.13
39141;BME280;24875;48.436;10.298;2022-07-11T10:28:07;96839.63;;;23.42;52.27
39141;BME280;24875;48.436;10.298;2022-07-11T10:30:44;96835.50;;;23.24;51.38
39141;BME280;24875;48.436;10.298;2022-07-11T10:33:11;96835.91;;;23.16;52.80
39141;BME280;24875;48.436;10.298;2022-07-11T10:35:40;96842.94;;;22.66;52.35
39141;BME280;24875;48.436;10.298;2022-07-11T10:38:06;96838.63;;;22.93;55.11
39141;BME280;24875;48.436;10.298;2022-07-11T10:40:42;96839.69;;;23.03;55.18
39141;BME280;24875;48.436;10.298;2022-07-11T10:43:10;96841.59;;;22.80;52.68
39141;BME280;24875;48.436;10.298;2022-07-11T10:45:54;96847.78;;;22.80;53.71
39141;BME280;24875;48.436;10.298;2022-07-11T10:48:22;96849.72;;;22.57;55.26
39141;BME280;24875;48.436;10.298;2022-07-11T10:50:53;96839.66;;;22.64;56.84
39141;BME280;24875;48.436;10.298;2022-07-11T10:53:31;96836.53;;;22.56;55.80
39141;BME280;24875;48.436;10.298;2022-07-11T10:56:05;96836.69;;;22.77;54.23
39141;BME280;24875;48.436;10.298;2022-07-11T10:58:40;96833.72;;;23.01;52.68
39141;BME280;24875;48.436;10.298;2022-07-11T11:01:08;96831.63;;;22.92;53.47
39141;BME280;24875;48.436;10.298;2022-07-11T11:03:35;96836.19;;;23.03;57.13
39141;BME280;24875;48.436;10.298;2022-07-11T11:06:02;96834.47;;;22.74;52.46
39141;BME280;24875;48.436;10.298;2022-07-11T11:08:44;96828.47;;;23.23;50.81
39141;BME280;24875;48.436;10.298;2022-07-11T11:11:35;96834.72;;;23.39;53.52
39141;BME280;24875;48.436;10.298;2022-07-11T11:14:22;96830.41;;;23.38;51.71
39141;BME280;24875;48.436;10.298;2022-07-11T11:16:51;96832.19;;;23.49;52.03
39141;BME280;24875;48.436;10.298;2022-07-11T11:19:49;96827.13;;;23.36;49.89
39141;BME280;24875;48.436;10.298;2022-07-11T11:22:17;96831.56;;;23.15;51.63
39141;BME280;24875;48.436;10.298;2022-07-11T11:24:45;96838.13;;;23.07;54.71
39141;BME280;24875;48.436;10.298;2022-07-11T11:27:17;96843.75;;;23.06;53.98
39141;BME280;24875;48.436;10.298;2022-07-11T11:29:49;96842.03;;;22.88;52.28
39141;BME280;24875;48.436;10.298;2022-07-11T11:32:16;96833.28;;;22.81;56.39
39141;BME280;24875;48.436;10.298;2022-07-11T11:34:43;96836.19;;;22.29;53.01
39141;BME280;24875;48.436;10.298;2022-07-11T11:37:09;96843.91;;;22.37;56.68
39141;BME280;24875;48.436;10.298;2022-07-11T11:39:39;96844.59;;;22.21;57.53
39141;BME280;24875;48.436;10.298;2022-07-11T11:42:11;96844.50;;;22.28;59.06
39141;BME280;24875;48.436;10.298;2022-07-11T11:44:51;96835.59;;;22.39;57.78
39141;BME280;24875;48.436;10.298;2022-07-11T11:47:18;96840.84;;;22.00;56.03
39141;BME280;24875;48.436;10.298;2022-07-11T11:49:45;96838.28;;;22.27;59.31
39141;BME280;24875;48.436;10.298;2022-07-11T11:52:13;96843.88;;;22.49;57.35
39141;BME280;24875;48.436;10.298;2022-07-11T11:54:39;96841.63;;;22.68;55.25
39141;BME280;24875;48.436;10.298;2022-07-11T11:57:07;96840.53;;;22.81;57.46
39141;BME280;24875;48.436;10.298;2022-07-11T11:59:36;96843.91;;;22.99;58.49
39141;BME280;24875;48.436;10.298;2022-07-11T12:02:04;96851.09;;;23.10;55.62
39141;BME280;24875;48.436;10.298;2022-07-11T12:04:32;96832.06;;;23.12;56.91
39141;BME280;24875;48.436;10.298;2022-07-11T12:06:59;96840.88;;;23.24;57.67
39141;BME280;24875;48.436;10.298;2022-07-11T12:09:27;96839.13;;;23.45;53.82
39141;BME280;24875;48.436;10.298;2022-07-11T12:12:08;96836.44;;;23.18;56.54
39141;BME280;24875;48.436;10.298;2022-07-11T12:14:52;96843.03;;;23.10;53.85
39141;BME280;24875;48.436;10.298;2022-07-11T12:17:24;96845.78;;;23.27;54.77
39141;BME280;24875;48.436;10.298;2022-07-11T12:19:51;96840.63;;;22.86;55.00
39141;BME280;24875;48.436;10.298;2022-07-11T12:22:17;96840.84;;;22.45;55.99
39141;BME280;24875;48.436;10.298;2022-07-11T12:24:46;96833.84;;;22.44;56.55
39141;BME280;24875;48.436;10.298;2022-07-11T12:27:17;96832.03;;;22.72;56.30
39141;BME280;24875;48.436;10.298;2022-07-11T12:29:43;96834.41;;;22.46;55.54
39141;BME280;24875;48.436;10.298;2022-07-11T12:32:15;96826.50;;;22.28;56.80
39141;BME280;24875;48.436;10.298;2022-07-11T12:34:44;96827.38;;;22.68;55.69
39141;BME280;24875;48.436;10.298;2022-07-11T12:37:13;96828.56;;;22.61;54.36
39141;BME280;24875;48.436;10.298;2022-07-11T12:39:47;96820.28;;;23.01;55.91
39141;BME280;24875;48.436;10.298;2022-07-11T12:42:25;96811.09;;;23.58;53.26
39141;BME280;24875;48.436;10.298;2022-07-11T12:44:56;96814.91;;;23.90;56.22
39141;BME280;24875;48.436;10.298;2022-07-11T12:47:27;96818.97;;;24.46;55.44
39141;BME280;24875;48.436;10.298;2022-07-11T12:49:56;96818.75;;;24.69;51.22
39141;BME280;24875;48.436;10.298;2022-07-11T12:52:23;96824.31;;;24.41;54.16
39141;BME280;24875;48.436;10.298;2022-07-11T12:54:49;96820.44;;;24.54;53.33
39141;BME280;24875;48.436;10.298;2022-07-11T12:57:20;96816.50;;;24.82;51.06